createdAt,value
2019-05-30T00:00:18.305Z,92.8
2019-05-30T00:02:02.922Z,92.6
2019-05-30T00:03:04.607Z,93.8
2019-05-30T00:04:05.110Z,93.8
2019-05-30T00:05:02.966Z,94.2
2019-05-30T00:06:04.195Z,94.9
2019-05-30T00:07:03.022Z,94.9
2019-05-30T00:08:02.690Z,94.2
2019-05-30T00:09:04.786Z,93.5
2019-05-30T00:10:03.232Z,92.6
2019-05-30T00:11:05.053Z,93.3
2019-05-30T00:12:03.314Z,93.8
2019-05-30T00:13:03.126Z,94.5
2019-05-30T00:14:03.061Z,93.5
2019-05-30T00:15:06.784Z,92.6
2019-05-30T00:16:03.273Z,92.4
2019-05-30T00:17:03.336Z,93.8
2019-05-30T00:18:03.145Z,94
2019-05-30T00:19:03.134Z,96.1
2019-05-30T00:20:06.347Z,97.7
2019-05-30T00:21:03.162Z,98
2019-05-30T00:22:05.842Z,98.9
2019-05-30T00:23:03.021Z,97.5
2019-05-30T00:24:02.584Z,97.5
2019-05-30T00:25:04.550Z,97.3
2019-05-30T00:26:03.605Z,98
2019-05-30T00:27:04.785Z,98.4
2019-05-30T00:28:05.521Z,97.3
2019-05-30T00:29:02.873Z,96.8
2019-05-30T00:30:03.790Z,97.7
2019-05-30T00:31:03.136Z,97.5
2019-05-30T00:32:05.678Z,96.8
2019-05-30T00:33:06.983Z,95.4
2019-05-30T00:34:04.451Z,96.6
2019-05-30T00:35:04.022Z,96.6
2019-05-30T00:36:04.129Z,97.3
2019-05-30T00:37:04.320Z,97.3
2019-05-30T00:38:04.064Z,98.4
2019-05-30T00:39:04.114Z,98.4
2019-05-30T00:40:04.376Z,100.1
2019-05-30T00:41:04.458Z,98.7
2019-05-30T00:42:04.524Z,97.7
2019-05-30T00:43:04.468Z,99.4
2019-05-30T00:44:04.662Z,98.2
2019-05-30T00:45:21.722Z,97.7
2019-05-30T00:47:04.731Z,98
2019-05-30T00:48:02.701Z,98
2019-05-30T00:49:04.805Z,98.4
2019-05-30T00:50:04.571Z,97.7
2019-05-30T00:51:04.292Z,96.8
2019-05-30T00:52:02.884Z,97.3
2019-05-30T00:53:03.159Z,97.3
2019-05-30T00:54:03.130Z,96.3
2019-05-30T00:55:04.931Z,96.1
2019-05-30T00:56:04.464Z,96.3
2019-05-30T00:57:03.024Z,96.3
2019-05-30T00:58:03.281Z,96.8
2019-05-30T00:59:03.351Z,98.7
2019-05-30T01:00:05.116Z,99.8
2019-05-30T01:01:03.371Z,98.7
2019-05-30T01:02:03.063Z,99.1
2019-05-30T01:03:09.425Z,98.9
2019-05-30T01:04:03.365Z,98.2
2019-05-30T01:05:05.300Z,98
2019-05-30T01:06:03.227Z,97.7
2019-05-30T01:07:05.384Z,97.5
2019-05-30T01:08:03.574Z,96.8
2019-05-30T01:09:03.513Z,98.9
2019-05-30T01:10:03.449Z,99.4
2019-05-30T01:11:03.597Z,98.9
2019-05-30T01:12:03.318Z,98
2019-05-30T01:13:03.350Z,96.8
2019-05-30T01:14:05.606Z,97.7
2019-05-30T01:15:03.590Z,98
2019-05-30T01:16:03.460Z,98
2019-05-30T01:17:03.443Z,95.2
2019-05-30T01:18:03.417Z,95.4
2019-05-30T01:19:03.464Z,92.4
2019-05-30T01:20:03.440Z,90.5
2019-05-30T01:21:03.508Z,91
2019-05-30T01:22:03.670Z,90.7
2019-05-30T01:23:03.495Z,91.4
2019-05-30T01:24:03.758Z,91.7
2019-05-30T01:25:08.024Z,91.7
2019-05-30T01:26:03.665Z,91.2
2019-05-30T01:27:03.677Z,90.3
2019-05-30T01:28:03.860Z,91.9
2019-05-30T01:29:03.651Z,91.9
2019-05-30T01:30:03.951Z,91
2019-05-30T01:31:12.022Z,91.2
2019-05-30T01:32:03.841Z,92.1
2019-05-30T01:33:04.084Z,92.4
2019-05-30T01:34:03.901Z,91.9
2019-05-30T01:35:04.115Z,92.4
2019-05-30T01:36:03.970Z,91.9
2019-05-30T01:37:03.986Z,91.4
2019-05-30T01:38:04.166Z,91.7
2019-05-30T01:39:04.001Z,90.7
2019-05-30T01:40:06.103Z,90.7
2019-05-30T01:41:04.361Z,89.6
2019-05-30T01:42:04.054Z,90
2019-05-30T01:43:04.329Z,89.1
2019-05-30T01:44:04.193Z,89.8
2019-05-30T01:45:04.446Z,91
2019-05-30T01:46:04.461Z,91
2019-05-30T01:47:04.309Z,90.3
2019-05-30T01:48:04.848Z,89.8
2019-05-30T01:49:04.543Z,89.1
2019-05-30T01:50:02.832Z,89.3
2019-05-30T01:51:04.805Z,89.3
2019-05-30T01:52:04.607Z,89.6
2019-05-30T01:53:02.867Z,89.6
2019-05-30T01:54:04.792Z,90.5
2019-05-30T01:55:03.112Z,90.7
2019-05-30T01:56:03.017Z,90.3
2019-05-30T01:57:03.271Z,91.4
2019-05-30T01:58:05.153Z,91.7
2019-05-30T01:59:02.894Z,90.3
2019-05-30T02:00:21.862Z,91.7
2019-05-30T02:01:25.950Z,92.4
2019-05-30T02:03:03.183Z,93.5
2019-05-30T02:04:03.520Z,95.6
2019-05-30T02:05:03.332Z,95.6
2019-05-30T02:06:03.596Z,94.2
2019-05-30T02:07:03.619Z,93.8
2019-05-30T02:08:03.365Z,93.8
2019-05-30T02:09:03.441Z,93.1
2019-05-30T02:10:03.532Z,92.8
2019-05-30T02:11:03.642Z,94
2019-05-30T02:12:03.890Z,94.5
2019-05-30T02:13:03.576Z,94.9
2019-05-30T02:14:03.792Z,94.9
2019-05-30T02:15:03.849Z,95.9
2019-05-30T02:16:03.959Z,97.5
2019-05-30T02:17:03.892Z,97
2019-05-30T02:18:03.781Z,97.3
2019-05-30T02:19:03.939Z,98.2
2019-05-30T02:20:03.846Z,97.5
2019-05-30T02:21:03.960Z,97.3
2019-05-30T02:22:03.960Z,97.5
2019-05-30T02:23:11.543Z,97.5
2019-05-30T02:24:04.118Z,96.6
2019-05-30T02:25:04.106Z,96.3
2019-05-30T02:26:04.431Z,98
2019-05-30T02:27:04.383Z,98
2019-05-30T02:28:02.592Z,97.3
2019-05-30T02:29:04.392Z,97.3
2019-05-30T02:30:15.204Z,98.4
2019-05-30T02:31:12.152Z,99.6
2019-05-30T02:32:10.818Z,99.6
2019-05-30T02:33:10.414Z,102.6
2019-05-30T02:34:10.059Z,102.4
2019-05-30T02:35:12.789Z,102.2
2019-05-30T02:36:12.136Z,100.5
2019-05-30T02:37:12.815Z,99.8
2019-05-30T02:38:09.583Z,99.6
2019-05-30T02:39:05.093Z,101.9
2019-05-30T02:40:15.633Z,102.9
2019-05-30T02:41:10.495Z,105
2019-05-30T02:42:07.517Z,104
2019-05-30T02:43:12.022Z,103.3
2019-05-30T02:44:03.264Z,103.1
2019-05-30T02:45:12.355Z,101.5
2019-05-30T02:46:12.473Z,101.2
2019-05-30T02:47:09.960Z,102.9
2019-05-30T02:48:07.551Z,103.8
2019-05-30T02:49:14.179Z,104
2019-05-30T02:50:13.845Z,103.1
2019-05-30T02:51:10.184Z,104.3
2019-05-30T02:52:10.294Z,104.5
2019-05-30T02:53:12.272Z,103.3
2019-05-30T02:54:13.142Z,103.1
2019-05-30T02:55:13.074Z,103.3
2019-05-30T02:56:10.039Z,103.1
2019-05-30T02:57:05.674Z,101
2019-05-30T02:58:10.933Z,101
2019-05-30T02:59:12.983Z,100.8
2019-05-30T03:00:17.999Z,99.8
2019-05-30T03:01:13.600Z,100.5
2019-05-30T03:02:18.056Z,98.2
2019-05-30T03:03:14.419Z,96.6
2019-05-30T03:04:12.796Z,97.3
2019-05-30T03:05:14.767Z,97.3
2019-05-30T03:06:13.576Z,97.3
2019-05-30T03:07:12.998Z,99.8
2019-05-30T03:08:14.676Z,100.3
2019-05-30T03:09:12.676Z,99.6
2019-05-30T03:10:15.310Z,99.6
2019-05-30T03:11:15.618Z,97.7
2019-05-30T03:12:13.169Z,99.4
2019-05-30T03:13:12.346Z,100.8
2019-05-30T03:14:19.388Z,99.6
2019-05-30T03:15:15.414Z,99.4
2019-05-30T03:16:13.566Z,99.4
2019-05-30T03:17:14.759Z,100.1
2019-05-30T03:18:14.548Z,100.8
2019-05-30T03:19:04.132Z,100.3
2019-05-30T03:20:23.842Z,101.7
2019-05-30T03:22:12.262Z,101.9
2019-05-30T03:23:12.735Z,101.5
2019-05-30T03:24:14.215Z,101.5
2019-05-30T03:25:15.159Z,101.2
2019-05-30T03:26:15.190Z,100.3
2019-05-30T03:27:11.751Z,99.8
2019-05-30T03:28:11.291Z,99.1
2019-05-30T03:29:13.781Z,99.4
2019-05-30T03:30:29.544Z,97.7
2019-05-30T03:31:30.373Z,96.6
2019-05-30T03:33:41.262Z,94.9
2019-05-30T03:33:43.368Z,93.8
2019-05-30T03:35:35.614Z,94.5
2019-05-30T03:37:30.872Z,95.4
2019-05-30T03:39:10.700Z,92.8
2019-05-30T03:41:12.169Z,91.2
2019-05-30T03:42:10.931Z,91.9
2019-05-30T03:43:13.704Z,91.7
2019-05-30T03:44:13.823Z,91.4
2019-05-30T03:45:14.381Z,91.7
2019-05-30T03:46:11.143Z,91.7
2019-05-30T03:47:11.588Z,90
2019-05-30T03:48:13.319Z,89.8
2019-05-30T03:49:11.205Z,90.3
2019-05-30T03:50:17.162Z,91
2019-05-30T03:51:06.349Z,89.8
2019-05-30T03:52:16.507Z,89.1
2019-05-30T03:53:13.880Z,90.7
2019-05-30T03:54:13.634Z,90.3
2019-05-30T03:55:14.189Z,90.5
2019-05-30T03:56:09.116Z,91.7
2019-05-30T03:57:10.755Z,92.6
2019-05-30T03:58:02.694Z,93.8
2019-05-30T03:59:03.165Z,94
2019-05-30T04:00:03.204Z,92.8
2019-05-30T04:01:02.751Z,92.8
2019-05-30T04:02:02.979Z,92.1
2019-05-30T04:03:02.961Z,93.3
2019-05-30T04:04:02.605Z,93.3
2019-05-30T04:05:03.326Z,94.7
2019-05-30T04:06:02.698Z,95.2
2019-05-30T04:07:03.186Z,94
2019-05-30T04:08:03.076Z,94.2
2019-05-30T04:09:02.765Z,94
2019-05-30T04:10:03.691Z,94.5
2019-05-30T04:11:02.817Z,94.2
2019-05-30T04:12:03.166Z,92.6
2019-05-30T04:13:03.085Z,91.2
2019-05-30T04:14:03.380Z,92.4
2019-05-30T04:15:03.247Z,92.1
2019-05-30T04:16:02.788Z,90.3
2019-05-30T04:17:03.494Z,89.6
2019-05-30T04:18:03.332Z,87.9
2019-05-30T04:19:02.612Z,87.7
2019-05-30T04:20:03.427Z,86.8
2019-05-30T04:21:03.113Z,86.1
2019-05-30T04:22:02.831Z,86.1
2019-05-30T04:23:03.364Z,85.1
2019-05-30T04:24:03.160Z,84.2
2019-05-30T04:25:02.685Z,84.2
2019-05-30T04:26:03.358Z,82.8
2019-05-30T04:27:03.014Z,83.7
2019-05-30T04:28:03.454Z,84.4
2019-05-30T04:29:03.278Z,84.4
2019-05-30T04:30:02.918Z,86.8
2019-05-30T04:31:02.647Z,86.3
2019-05-30T04:32:03.304Z,85.8
2019-05-30T04:33:34.128Z,85.4
2019-05-30T04:35:03.316Z,84
2019-05-30T04:36:02.922Z,83.7
2019-05-30T04:37:03.422Z,84.7
2019-05-30T04:38:03.295Z,85.8
2019-05-30T04:39:03.082Z,86.5
2019-05-30T04:40:02.740Z,87.7
2019-05-30T04:41:03.292Z,88.6
2019-05-30T04:42:02.793Z,89.3
2019-05-30T04:43:03.173Z,89.3
2019-05-30T04:44:02.963Z,90.5
2019-05-30T04:45:02.838Z,91.7
2019-05-30T04:46:03.440Z,91
2019-05-30T04:47:02.956Z,90.3
2019-05-30T04:48:02.665Z,90.7
2019-05-30T04:49:03.061Z,90.7
2019-05-30T04:50:03.170Z,90
2019-05-30T04:51:03.395Z,91.7
2019-05-30T04:52:03.447Z,91.7
2019-05-30T04:53:03.047Z,91.7
2019-05-30T04:54:02.504Z,90.7
2019-05-30T04:55:03.218Z,91
2019-05-30T04:56:02.744Z,92.6
2019-05-30T04:57:03.292Z,92.6
2019-05-30T04:58:03.247Z,92.6
2019-05-30T04:59:02.836Z,93.3
2019-05-30T05:00:03.638Z,93.8
2019-05-30T05:01:03.220Z,95.4
2019-05-30T05:02:02.716Z,95.2
2019-05-30T05:03:03.571Z,93.3
2019-05-30T05:04:03.318Z,92.1
2019-05-30T05:05:02.800Z,91
2019-05-30T05:06:03.516Z,90.7
2019-05-30T05:07:02.660Z,90.7
2019-05-30T05:08:02.598Z,91.9
2019-05-30T05:09:03.331Z,92.4
2019-05-30T05:10:03.100Z,92.6
2019-05-30T05:11:03.338Z,93.5
2019-05-30T05:12:03.114Z,93.5
2019-05-30T05:13:02.702Z,92.4
2019-05-30T05:14:02.733Z,92.8
2019-05-30T05:15:03.534Z,92.6
2019-05-30T05:16:02.758Z,92.6
2019-05-30T05:17:03.344Z,93.5
2019-05-30T05:18:03.242Z,93.8
2019-05-30T05:19:02.569Z,94.7
2019-05-30T05:20:03.608Z,95.4
2019-05-30T05:21:02.938Z,95.4
2019-05-30T05:22:02.682Z,95.6
2019-05-30T05:23:03.447Z,95.9
2019-05-30T05:24:03.402Z,96.3
2019-05-30T05:25:02.786Z,98
2019-05-30T05:26:03.204Z,97.7
2019-05-30T05:27:02.880Z,98.4
2019-05-30T05:28:03.544Z,98.4
2019-05-30T05:29:03.134Z,98.4
2019-05-30T05:30:02.703Z,98.4
2019-05-30T05:31:03.535Z,97.3
2019-05-30T05:32:03.129Z,97.3
2019-05-30T05:33:02.728Z,98.2
2019-05-30T05:34:03.441Z,98.7
2019-05-30T05:35:02.864Z,99.4
2019-05-30T05:36:02.703Z,98.9
2019-05-30T05:37:03.163Z,98.9
2019-05-30T05:38:02.703Z,98.7
2019-05-30T05:39:03.632Z,98.7
2019-05-30T05:40:03.134Z,97
2019-05-30T05:41:02.698Z,95.4
2019-05-30T05:42:03.564Z,94.9
2019-05-30T05:43:03.047Z,94.9
2019-05-30T05:44:02.509Z,94.5
2019-05-30T05:45:03.163Z,93.5
2019-05-30T05:46:02.979Z,95.6
2019-05-30T05:47:02.402Z,95.4
2019-05-30T05:48:03.340Z,94.9
2019-05-30T05:49:02.689Z,94.7
2019-05-30T05:50:03.490Z,96.3
2019-05-30T05:51:02.978Z,95.2
2019-05-30T05:52:03.335Z,95.4
2019-05-30T05:53:03.389Z,95.6
2019-05-30T05:54:02.728Z,95.6
2019-05-30T05:55:03.446Z,95.4
2019-05-30T05:56:03.174Z,92.4
2019-05-30T05:57:02.523Z,92.4
2019-05-30T05:58:04.596Z,92.4
2019-05-30T05:59:03.107Z,91
2019-05-30T06:00:02.847Z,91
2019-05-30T06:01:03.484Z,90.7
2019-05-30T06:02:03.095Z,90.7
2019-05-30T06:03:02.341Z,91
2019-05-30T06:04:14.092Z,91
2019-05-30T06:06:03.493Z,91
2019-05-30T06:07:03.432Z,90.7
2019-05-30T06:08:02.901Z,89.1
2019-05-30T06:09:03.299Z,89.1
2019-05-30T06:10:03.071Z,88.6
2019-05-30T06:11:02.824Z,90.3
2019-05-30T06:12:03.412Z,89.8
2019-05-30T06:13:03.280Z,89.8
2019-05-30T06:14:02.614Z,89.8
2019-05-30T06:15:03.782Z,87.5
2019-05-30T06:16:02.934Z,87.9
2019-05-30T06:17:03.457Z,87.2
2019-05-30T06:18:03.081Z,87.7
2019-05-30T06:19:03.044Z,87.5
2019-05-30T06:20:03.656Z,86.8
2019-05-30T06:21:03.063Z,86.8
2019-05-30T06:22:02.645Z,86.5
2019-05-30T06:23:03.306Z,88.6
2019-05-30T06:24:02.932Z,89.1
2019-05-30T06:25:03.732Z,89.6
2019-05-30T06:26:03.378Z,90.3
2019-05-30T06:27:02.647Z,90
2019-05-30T06:28:03.441Z,89.8
2019-05-30T06:29:02.939Z,89.1
2019-05-30T06:30:02.782Z,88.2
2019-05-30T06:31:03.444Z,87.7
2019-05-30T06:32:03.167Z,88.2
2019-05-30T06:33:03.628Z,89.8
2019-05-30T06:34:03.160Z,89.3
2019-05-30T06:35:02.837Z,89.3
2019-05-30T06:36:03.377Z,88.6
2019-05-30T06:37:03.210Z,88.2
2019-05-30T06:38:02.713Z,88.2
2019-05-30T06:39:03.260Z,87.7
2019-05-30T06:40:02.857Z,88.2
2019-05-30T06:41:03.323Z,88.4
2019-05-30T06:42:02.824Z,88.4
2019-05-30T06:43:02.850Z,89.6
2019-05-30T06:44:06.093Z,89.6
2019-05-30T06:45:03.157Z,88.6
2019-05-30T06:46:02.690Z,86.8
2019-05-30T06:47:03.349Z,88.6
2019-05-30T06:48:02.939Z,89.6
2019-05-30T06:49:03.284Z,90
2019-05-30T06:50:03.238Z,89.8
2019-05-30T06:51:02.824Z,91
2019-05-30T06:52:03.344Z,91.2
2019-05-30T06:53:02.852Z,91
2019-05-30T06:54:03.497Z,92.1
2019-05-30T06:55:02.968Z,92.4
2019-05-30T06:56:03.235Z,93.1
2019-05-30T06:57:03.761Z,93.3
2019-05-30T06:58:03.133Z,93.8
2019-05-30T06:59:02.946Z,94.2
2019-05-30T07:00:03.701Z,94
2019-05-30T07:01:03.117Z,93.8
2019-05-30T07:02:02.857Z,94
2019-05-30T07:03:03.897Z,94
2019-05-30T07:04:04.831Z,94
2019-05-30T07:05:06.053Z,93.3
2019-05-30T07:06:06.094Z,93.8
2019-05-30T07:07:07.266Z,93.8
2019-05-30T07:08:03.500Z,94.9
2019-05-30T07:09:03.146Z,95.2
2019-05-30T07:10:03.005Z,96.8
2019-05-30T07:11:03.391Z,95.4
2019-05-30T07:12:03.174Z,96.1
2019-05-30T07:13:02.859Z,96.3
2019-05-30T07:14:02.549Z,96.6
2019-05-30T07:15:03.362Z,96.8
2019-05-30T07:16:02.766Z,96.1
2019-05-30T07:17:03.401Z,95.9
2019-05-30T07:18:03.082Z,97
2019-05-30T07:19:03.303Z,96.3
2019-05-30T07:20:03.458Z,96.8
2019-05-30T07:21:02.966Z,96.8
2019-05-30T07:22:03.265Z,98
2019-05-30T07:23:03.197Z,96.3
2019-05-30T07:24:03.093Z,96.1
2019-05-30T07:25:03.359Z,95.4
2019-05-30T07:26:04.156Z,95.2
2019-05-30T07:27:02.735Z,94.9
2019-05-30T07:28:03.458Z,94.7
2019-05-30T07:29:02.603Z,94.9
2019-05-30T07:30:03.389Z,95.4
2019-05-30T07:31:02.951Z,96.3
2019-05-30T07:32:02.840Z,95.9
2019-05-30T07:33:03.523Z,94.7
2019-05-30T07:34:03.069Z,94.9
2019-05-30T07:35:07.875Z,94.5
2019-05-30T07:36:03.326Z,96.6
2019-05-30T07:37:02.773Z,96.6
2019-05-30T07:38:02.936Z,96.6
2019-05-30T07:39:03.288Z,96.6
2019-05-30T07:40:03.161Z,96.6
2019-05-30T07:41:03.674Z,97.3
2019-05-30T07:42:07.285Z,95.9
2019-05-30T07:43:02.816Z,94.5
2019-05-30T07:44:02.428Z,94.9
2019-05-30T07:45:03.132Z,96.3
2019-05-30T07:46:02.559Z,98.2
2019-05-30T07:47:03.514Z,97.7
2019-05-30T07:48:02.959Z,97.7
2019-05-30T07:49:03.524Z,97.7
2019-05-30T07:50:03.315Z,97.3
2019-05-30T07:51:03.116Z,95.4
2019-05-30T07:52:03.253Z,94.9
2019-05-30T07:53:02.767Z,94.5
2019-05-30T07:54:03.139Z,93.3
2019-05-30T07:55:03.373Z,93.3
2019-05-30T07:56:02.683Z,93.5
2019-05-30T07:57:02.949Z,92.8
2019-05-30T07:58:03.143Z,91.9
2019-05-30T07:59:02.754Z,91.9
2019-05-30T08:00:03.538Z,92.8
2019-05-30T08:01:02.758Z,91.9
2019-05-30T08:02:03.605Z,91.9
2019-05-30T08:03:03.275Z,93.1
2019-05-30T08:04:02.928Z,93.3
2019-05-30T08:05:03.086Z,93.5
2019-05-30T08:06:02.923Z,92.6
2019-05-30T08:07:02.791Z,93.1
2019-05-30T08:08:03.152Z,92.8
2019-05-30T08:09:02.827Z,92.6
2019-05-30T08:10:03.683Z,90
2019-05-30T08:11:10.602Z,90.3
2019-05-30T08:12:02.694Z,90.7
2019-05-30T08:13:03.469Z,91.4
2019-05-30T08:14:02.982Z,92.1
2019-05-30T08:15:03.681Z,94.2
2019-05-30T08:16:03.204Z,94.7
2019-05-30T08:17:03.214Z,96.6
2019-05-30T08:18:02.713Z,94.9
2019-05-30T08:19:03.093Z,96.6
2019-05-30T08:20:02.798Z,96.8
2019-05-30T08:21:03.397Z,98
2019-05-30T08:22:02.900Z,97.3
2019-05-30T08:23:02.879Z,97
2019-05-30T08:24:03.634Z,97.5
2019-05-30T08:25:03.126Z,96.3
2019-05-30T08:26:02.904Z,96.1
2019-05-30T08:27:03.292Z,96.6
2019-05-30T08:28:02.969Z,98.2
2019-05-30T08:29:03.020Z,98.2
2019-05-30T08:30:03.675Z,98.7
2019-05-30T08:31:02.984Z,98
2019-05-30T08:32:03.292Z,98
2019-05-30T08:33:03.277Z,96.3
2019-05-30T08:34:03.268Z,96.8
2019-05-30T08:35:02.929Z,96.8
2019-05-30T08:36:06.248Z,94.7
2019-05-30T08:37:02.642Z,94.2
2019-05-30T08:38:03.334Z,95.2
2019-05-30T08:39:02.785Z,94.9
2019-05-30T08:40:03.595Z,94
2019-05-30T08:41:03.376Z,93.5
2019-05-30T08:42:02.948Z,94.2
2019-05-30T08:43:03.671Z,93.5
2019-05-30T08:44:03.177Z,91.9
2019-05-30T08:45:02.888Z,91.4
2019-05-30T08:46:02.697Z,91.4
2019-05-30T08:47:03.213Z,89.1
2019-05-30T08:48:02.885Z,87.9
2019-05-30T08:49:03.425Z,87.7
2019-05-30T08:50:03.000Z,87.9
2019-05-30T08:51:03.350Z,90.7
2019-05-30T08:52:02.838Z,90.5
2019-05-30T08:53:02.922Z,91.7
2019-05-30T08:54:03.410Z,92.1
2019-05-30T08:55:03.176Z,91.9
2019-05-30T08:56:02.690Z,91.7
2019-05-30T08:57:03.439Z,91.7
2019-05-30T08:58:03.106Z,93.1
2019-05-30T08:59:02.890Z,92.8
2019-05-30T09:00:03.311Z,92.8
2019-05-30T09:01:02.916Z,93.1
2019-05-30T09:02:03.390Z,93.1
2019-05-30T09:03:03.579Z,93.1
2019-05-30T09:04:03.577Z,92.6
2019-05-30T09:05:07.493Z,93.1
2019-05-30T09:06:04.809Z,93.1
2019-05-30T09:07:03.543Z,94.2
2019-05-30T09:08:03.309Z,93.8
2019-05-30T09:09:02.687Z,94.7
2019-05-30T09:10:03.367Z,96.1
2019-05-30T09:11:02.801Z,96.1
2019-05-30T09:12:02.809Z,95.2
2019-05-30T09:13:03.360Z,94.7
2019-05-30T09:14:03.173Z,95.6
2019-05-30T09:15:03.588Z,94.5
2019-05-30T09:16:03.108Z,94.5
2019-05-30T09:17:03.375Z,95.4
2019-05-30T09:18:03.511Z,94.7
2019-05-30T09:19:03.332Z,94.2
2019-05-30T09:20:02.874Z,94.2
2019-05-30T09:21:03.487Z,94.2
2019-05-30T09:22:03.039Z,94.9
2019-05-30T09:23:02.706Z,94.7
2019-05-30T09:24:02.651Z,94.5
2019-05-30T09:25:03.416Z,96.3
2019-05-30T09:26:02.871Z,96.6
2019-05-30T09:27:03.284Z,96.6
2019-05-30T09:28:02.945Z,95.2
2019-05-30T09:29:04.163Z,95.6
2019-05-30T09:30:03.215Z,95.2
2019-05-30T09:31:03.132Z,94.9
2019-05-30T09:32:02.836Z,95.4
2019-05-30T09:33:02.879Z,95.6
2019-05-30T09:34:02.897Z,94.9
2019-05-30T09:35:02.656Z,94.7
2019-05-30T09:36:14.386Z,94.9
2019-05-30T09:38:02.647Z,96.3
2019-05-30T09:39:02.975Z,97
2019-05-30T09:40:02.878Z,98.4
2019-05-30T09:41:03.304Z,100.3
2019-05-30T09:42:02.848Z,101.5
2019-05-30T09:43:02.925Z,102.9
2019-05-30T09:44:03.440Z,104.7
2019-05-30T09:45:03.032Z,106.8
2019-05-30T09:46:03.546Z,107.1
2019-05-30T09:47:03.110Z,107.5
2019-05-30T09:48:03.049Z,107.5
2019-05-30T09:49:02.606Z,107.8
2019-05-30T09:50:04.274Z,107.8
2019-05-30T09:51:02.552Z,105.9
2019-05-30T09:52:03.539Z,106.1
2019-05-30T09:53:02.954Z,105
2019-05-30T09:54:03.330Z,104.5
2019-05-30T09:55:03.485Z,104.7
2019-05-30T09:56:02.964Z,105.2
2019-05-30T09:57:03.624Z,105.7
2019-05-30T09:58:03.167Z,105
2019-05-30T09:59:02.808Z,104.3
2019-05-30T10:00:03.654Z,103.1
2019-05-30T10:01:03.020Z,104
2019-05-30T10:02:02.680Z,104.5
2019-05-30T10:03:03.240Z,103.1
2019-05-30T10:04:02.775Z,104.3
2019-05-30T10:05:02.617Z,104
2019-05-30T10:06:03.066Z,104.3
2019-05-30T10:07:03.065Z,103.3
2019-05-30T10:08:02.704Z,104.5
2019-05-30T10:09:03.204Z,103.6
2019-05-30T10:10:03.635Z,103.8
2019-05-30T10:11:03.192Z,104
2019-05-30T10:12:03.010Z,104.5
2019-05-30T10:13:03.429Z,105.2
2019-05-30T10:14:03.281Z,105.4
2019-05-30T10:15:02.996Z,105.4
2019-05-30T10:16:03.470Z,105.9
2019-05-30T10:17:03.168Z,105.9
2019-05-30T10:18:02.870Z,107.3
2019-05-30T10:19:02.800Z,107.1
2019-05-30T10:20:03.331Z,106.1
2019-05-30T10:21:03.030Z,106.1
2019-05-30T10:22:03.506Z,104
2019-05-30T10:23:04.017Z,103.3
2019-05-30T10:24:02.845Z,103.3
2019-05-30T10:25:02.838Z,102.4
2019-05-30T10:26:03.449Z,101.7
2019-05-30T10:27:02.956Z,101.2
2019-05-30T10:28:03.487Z,101.2
2019-05-30T10:29:03.245Z,100.3
2019-05-30T10:30:03.615Z,101
2019-05-30T10:31:03.110Z,101.9
2019-05-30T10:32:02.940Z,101.9
2019-05-30T10:33:03.618Z,103.3
2019-05-30T10:34:03.468Z,104.3
2019-05-30T10:35:02.961Z,104.5
2019-05-30T10:36:02.427Z,105.7
2019-05-30T10:37:03.102Z,104.5
2019-05-30T10:38:03.492Z,103.3
2019-05-30T10:39:02.898Z,103.8
2019-05-30T10:40:03.579Z,104.5
2019-05-30T10:41:03.316Z,102.2
2019-05-30T10:42:03.314Z,100.5
2019-05-30T10:43:02.983Z,100.5
2019-05-30T10:44:03.649Z,99.6
2019-05-30T10:45:03.518Z,97.5
2019-05-30T10:46:03.032Z,97
2019-05-30T10:47:02.730Z,97.3
2019-05-30T10:48:03.135Z,97.5
2019-05-30T10:49:02.646Z,97
2019-05-30T10:50:02.602Z,96.3
2019-05-30T10:51:03.161Z,96.3
2019-05-30T10:52:02.808Z,96.3
2019-05-30T10:53:03.460Z,96.8
2019-05-30T10:54:03.267Z,96.6
2019-05-30T10:55:02.840Z,95.9
2019-05-30T10:56:03.421Z,95.4
2019-05-30T10:57:03.316Z,95.6
2019-05-30T10:58:02.796Z,95.6
2019-05-30T10:59:03.277Z,96.6
2019-05-30T11:00:03.279Z,98.4
2019-05-30T11:01:03.346Z,97.7
2019-05-30T11:02:02.921Z,98.7
2019-05-30T11:03:02.967Z,98.9
2019-05-30T11:04:03.674Z,99.1
2019-05-30T11:05:03.091Z,98.4
2019-05-30T11:06:02.699Z,97.7
2019-05-30T11:07:12.399Z,97.7
2019-05-30T11:08:06.779Z,97
2019-05-30T11:09:03.196Z,97.3
2019-05-30T11:10:03.746Z,96.6
2019-05-30T11:11:02.954Z,94.9
2019-05-30T11:12:03.024Z,95.2
2019-05-30T11:13:06.360Z,95.9
2019-05-30T11:14:02.900Z,94.7
2019-05-30T11:15:03.268Z,95.2
2019-05-30T11:16:03.211Z,93.8
2019-05-30T11:17:03.063Z,93.5
2019-05-30T11:18:02.691Z,93.1
2019-05-30T11:19:08.191Z,93.3
2019-05-30T11:20:03.103Z,93.1
2019-05-30T11:21:02.859Z,94
2019-05-30T11:22:03.306Z,94.7
2019-05-30T11:23:03.144Z,95.6
2019-05-30T11:24:02.747Z,95.4
2019-05-30T11:25:03.192Z,94.7
2019-05-30T11:26:02.647Z,96.6
2019-05-30T11:27:03.661Z,96.6
2019-05-30T11:28:03.327Z,97.3
2019-05-30T11:29:02.787Z,97.7
2019-05-30T11:30:03.309Z,98
2019-05-30T11:31:05.878Z,97.7
2019-05-30T11:32:03.515Z,98
2019-05-30T11:33:03.344Z,98.2
2019-05-30T11:34:02.922Z,97.3
2019-05-30T11:35:02.635Z,98.4
2019-05-30T11:36:03.341Z,98.7
2019-05-30T11:37:19.558Z,98.9
2019-05-30T11:39:02.826Z,97.7
2019-05-30T11:40:03.375Z,97.7
2019-05-30T11:41:03.395Z,98.2
2019-05-30T11:42:02.951Z,98.9
2019-05-30T11:43:02.892Z,98
2019-05-30T11:44:04.576Z,97
2019-05-30T11:45:03.086Z,97.3
2019-05-30T11:46:02.701Z,97.3
2019-05-30T11:47:03.093Z,97.3
2019-05-30T11:48:02.794Z,96.1
2019-05-30T11:49:03.393Z,95.6
2019-05-30T11:50:03.192Z,96.8
2019-05-30T11:51:02.619Z,96.8
2019-05-30T11:52:03.500Z,97
2019-05-30T11:53:02.922Z,97.3
2019-05-30T11:54:03.578Z,97.5
2019-05-30T11:55:03.475Z,98.4
2019-05-30T11:56:02.756Z,99.6
2019-05-30T11:57:03.638Z,98.4
2019-05-30T11:58:03.321Z,98.2
2019-05-30T11:59:02.931Z,98.7
2019-05-30T12:00:03.667Z,97.3
2019-05-30T12:01:03.266Z,98.2
2019-05-30T12:02:02.925Z,97.7
2019-05-30T12:03:03.678Z,97.5
2019-05-30T12:04:03.099Z,96.6
2019-05-30T12:05:02.691Z,96.6
2019-05-30T12:06:02.677Z,97
2019-05-30T12:07:03.150Z,97.5
2019-05-30T12:08:03.664Z,97
2019-05-30T12:09:03.369Z,96.6
2019-05-30T12:10:02.873Z,96.1
2019-05-30T12:11:02.714Z,96.1
2019-05-30T12:12:03.377Z,97
2019-05-30T12:13:02.910Z,95.4
2019-05-30T12:14:03.191Z,95.4
2019-05-30T12:15:02.997Z,93.8
2019-05-30T12:16:02.866Z,94.7
2019-05-30T12:17:03.607Z,94
2019-05-30T12:18:03.741Z,93.8
2019-05-30T12:19:02.678Z,94
2019-05-30T12:20:03.216Z,95.2
2019-05-30T12:21:03.099Z,94.7
2019-05-30T12:22:02.669Z,94.7
2019-05-30T12:23:02.662Z,93.8
2019-05-30T12:24:02.999Z,94.5
2019-05-30T12:25:03.022Z,94.9
2019-05-30T12:26:03.146Z,93.3
2019-05-30T12:27:02.665Z,92.6
2019-05-30T12:28:05.402Z,92.6
2019-05-30T12:29:03.102Z,92.1
2019-05-30T12:30:02.937Z,92.1
2019-05-30T12:31:07.091Z,91.7
2019-05-30T12:32:03.704Z,90.7
2019-05-30T12:33:03.692Z,90.7
2019-05-30T12:34:03.079Z,91
2019-05-30T12:35:03.549Z,90.3
2019-05-30T12:36:03.574Z,90.5
2019-05-30T12:37:03.069Z,91.2
2019-05-30T12:38:07.191Z,91.7
2019-05-30T12:39:03.095Z,91.4
2019-05-30T12:40:03.490Z,91.2
2019-05-30T12:41:03.253Z,90.7
2019-05-30T12:42:03.687Z,90.3
2019-05-30T12:43:05.300Z,90.7
2019-05-30T12:44:03.636Z,91.7
2019-05-30T12:45:07.622Z,91.4
2019-05-30T12:46:03.514Z,91.4
2019-05-30T12:47:03.881Z,92.1
2019-05-30T12:48:04.566Z,92.6
2019-05-30T12:49:03.967Z,93.5
2019-05-30T12:50:03.797Z,93.1
2019-05-30T12:51:03.753Z,91.7
2019-05-30T12:52:03.729Z,93.8
2019-05-30T12:53:03.244Z,92.8
2019-05-30T12:54:03.094Z,93.5
2019-05-30T12:55:03.731Z,93.5
2019-05-30T12:56:03.331Z,93.3
2019-05-30T12:57:03.055Z,94
2019-05-30T12:58:03.610Z,94.9
2019-05-30T12:59:03.338Z,94
2019-05-30T13:00:19.376Z,94.7
2019-05-30T13:01:03.621Z,94.5
2019-05-30T13:02:03.347Z,94
2019-05-30T13:03:03.382Z,94.5
2019-05-30T13:04:03.638Z,94.5
2019-05-30T13:05:03.336Z,95.6
2019-05-30T13:06:03.689Z,95.6
2019-05-30T13:07:03.592Z,96.3
2019-05-30T13:08:22.528Z,97.5
2019-05-30T13:10:03.675Z,101
2019-05-30T13:11:04.098Z,101.5
2019-05-30T13:12:03.201Z,100.3
2019-05-30T13:13:04.299Z,101.7
2019-05-30T13:14:03.044Z,101.2
2019-05-30T13:15:04.058Z,101
2019-05-30T13:16:09.368Z,101
2019-05-30T13:17:04.507Z,101
2019-05-30T13:18:03.342Z,101.2
2019-05-30T13:19:04.613Z,100.5
2019-05-30T13:20:03.730Z,99.4
2019-05-30T13:21:04.426Z,99.6
2019-05-30T13:22:12.793Z,99.8
2019-05-30T13:23:04.994Z,99.6
2019-05-30T13:24:04.021Z,99.8
2019-05-30T13:25:04.035Z,101.9
2019-05-30T13:26:04.088Z,103.3
2019-05-30T13:27:04.123Z,102.2
2019-05-30T13:28:08.862Z,102.2
2019-05-30T13:29:04.656Z,102.2
2019-05-30T13:30:04.368Z,101.2
2019-05-30T13:31:02.776Z,101
2019-05-30T13:32:04.826Z,101.9
2019-05-30T13:33:03.597Z,101.5